2016 Cux-Wetter.de -Die Nutzung der Wetterdaten nur mit ausdrcklicher Genehmigung
Wetterdaten: Sonntag, 16.09.2018
Datum Zeit Temp. A. Feuchte A. Luftdruck Regen Wind Richtung Richtung Sonnenschein Solar Taupunkt Windchill Windben
16.09.2018 00:00 14,2 C 75 % 1022,5 hPa 0,0 l/m 2,9 km/h (1 Bft) W 265 0 min 0 W/m 9,8 C 14,2 C 6,4 km/h (2 Bft)
16.09.2018 00:03 14,2 C 76 % 1022,4 hPa 0,0 l/m 3,4 km/h (1 Bft) W 265 0 min 0 W/m 10,0 C 14,2 C 6,4 km/h (2 Bft)
16.09.2018 00:06 14,2 C 76 % 1022,4 hPa 0,0 l/m 4,3 km/h (1 Bft) W 267 0 min 0 W/m 10,0 C 14,2 C 9,7 km/h (2 Bft)
16.09.2018 00:09 14,2 C 76 % 1022,4 hPa 0,0 l/m 3,7 km/h (1 Bft) W 275 0 min 0 W/m 10,0 C 14,2 C 6,4 km/h (2 Bft)
16.09.2018 00:12 14,1 C 76 % 1022,5 hPa 0,0 l/m 4,1 km/h (1 Bft) W 275 0 min 0 W/m 9,9 C 14,1 C 9,7 km/h (2 Bft)
16.09.2018 00:15 14,1 C 76 % 1022,5 hPa 0,0 l/m 3,2 km/h (1 Bft) W 275 0 min 0 W/m 9,9 C 14,1 C 6,4 km/h (2 Bft)
16.09.2018 00:18 14,1 C 76 % 1022,4 hPa 0,0 l/m 2,1 km/h (1 Bft) W 273 0 min 0 W/m 9,9 C 14,1 C 6,4 km/h (2 Bft)
16.09.2018 00:21 14,1 C 76 % 1022,4 hPa 0,0 l/m 2,7 km/h (1 Bft) W 273 0 min 0 W/m 9,9 C 14,1 C 4,8 km/h (1 Bft)
16.09.2018 00:24 14,1 C 76 % 1022,5 hPa 0,0 l/m 2,4 km/h (1 Bft) W 273 0 min 0 W/m 9,9 C 14,1 C 6,4 km/h (2 Bft)
16.09.2018 00:27 14,1 C 76 % 1022,5 hPa 0,0 l/m 2,7 km/h (1 Bft) W 273 0 min 0 W/m 9,9 C 14,1 C 6,4 km/h (2 Bft)
16.09.2018 00:30 14,1 C 76 % 1022,5 hPa 0,0 l/m 3,2 km/h (1 Bft) W 273 0 min 0 W/m 9,9 C 14,1 C 6,4 km/h (2 Bft)
16.09.2018 00:33 14,1 C 77 % 1022,5 hPa 0,0 l/m 1,7 km/h (1 Bft) W 273 0 min 0 W/m 10,1 C 14,1 C 4,8 km/h (1 Bft)
16.09.2018 00:36 14,1 C 77 % 1022,5 hPa 0,0 l/m 2,4 km/h (1 Bft) W 273 0 min 0 W/m 10,1 C 14,1 C 3,2 km/h (1 Bft)
16.09.2018 00:39 14,1 C 77 % 1022,5 hPa 0,0 l/m 3,5 km/h (1 Bft) W 273 0 min 0 W/m 10,1 C 14,1 C 6,4 km/h (2 Bft)
16.09.2018 00:42 14,1 C 77 % 1022,5 hPa 0,0 l/m 4,2 km/h (1 Bft) W-SW 258 0 min 0 W/m 10,1 C 14,1 C 9,7 km/h (2 Bft)
16.09.2018 00:45 14,1 C 77 % 1022,5 hPa 0,0 l/m 1,8 km/h (1 Bft) W-SW 258 0 min 0 W/m 10,1 C 14,1 C 3,2 km/h (1 Bft)
16.09.2018 00:48 14,1 C 78 % 1022,5 hPa 0,0 l/m 2,0 km/h (1 Bft) W-SW 258 0 min 0 W/m 10,3 C 14,1 C 4,8 km/h (1 Bft)
16.09.2018 00:51 14,1 C 78 % 1022,5 hPa 0,0 l/m 1,5 km/h (1 Bft) W-SW 258 0 min 0 W/m 10,3 C 14,1 C 4,8 km/h (1 Bft)
16.09.2018 00:54 14,1 C 78 % 1022,5 hPa 0,0 l/m 1,3 km/h (1 Bft) W-SW 258 0 min 0 W/m 10,3 C 14,1 C 3,2 km/h (1 Bft)
16.09.2018 00:57 14,1 C 78 % 1022,4 hPa 0,0 l/m 1,8 km/h (1 Bft) W-SW 258 0 min 0 W/m 10,3 C 14,1 C 4,8 km/h (1 Bft)
16.09.2018 01:00 14,1 C 78 % 1022,5 hPa 0,0 l/m 1,6 km/h (1 Bft) W-SW 258 0 min 0 W/m 10,3 C 14,1 C 3,2 km/h (1 Bft)
16.09.2018 01:03 14,1 C 78 % 1022,4 hPa 0,0 l/m 1,1 km/h (1 Bft) W-SW 254 0 min 0 W/m 10,3 C 14,1 C 6,4 km/h (2 Bft)
16.09.2018 01:06 14,1 C 79 % 1022,5 hPa 0,0 l/m 0,4 km/h (0 Bft) W-SW 254 0 min 0 W/m 10,5 C 14,1 C 3,2 km/h (1 Bft)
16.09.2018 01:09 14,1 C 79 % 1022,3 hPa 0,0 l/m 3,2 km/h (1 Bft) W-SW 254 0 min 0 W/m 10,5 C 14,1 C 4,8 km/h (1 Bft)
16.09.2018 01:12 14,1 C 79 % 1022,4 hPa 0,0 l/m 2,9 km/h (1 Bft) W-SW 254 0 min 0 W/m 10,5 C 14,1 C 4,8 km/h (1 Bft)
16.09.2018 01:15 14,1 C 79 % 1022,3 hPa 0,0 l/m 2,4 km/h (1 Bft) W-SW 254 0 min 0 W/m 10,5 C 14,1 C 3,2 km/h (1 Bft)
16.09.2018 01:18 14,1 C 79 % 1022,4 hPa 0,0 l/m 3,1 km/h (1 Bft) W-SW 254 0 min 0 W/m 10,5 C 14,1 C 4,8 km/h (1 Bft)
16.09.2018 01:21 14,1 C 80 % 1022,4 hPa 0,0 l/m 3,0 km/h (1 Bft) W-SW 254 0 min 0 W/m 10,7 C 14,1 C 4,8 km/h (1 Bft)
16.09.2018 01:24 14,1 C 80 % 1022,4 hPa 0,0 l/m 2,9 km/h (1 Bft) W-SW 254 0 min 0 W/m 10,7 C 14,1 C 4,8 km/h (1 Bft)
16.09.2018 01:27 14,0 C 80 % 1022,4 hPa 0,0 l/m 3,1 km/h (1 Bft) W-SW 254 0 min 0 W/m 10,6 C 14,0 C 4,8 km/h (1 Bft)
16.09.2018 01:30 14,0 C 81 % 1022,4 hPa 0,0 l/m 5,9 km/h (2 Bft) SW 216 0 min 0 W/m 10,8 C 14,0 C 9,7 km/h (2 Bft)
16.09.2018 01:33 14,1 C 82 % 1022,4 hPa 0,0 l/m 6,8 km/h (2 Bft) SW 222 0 min 0 W/m 11,1 C 13,9 C 12,9 km/h (3 Bft)
16.09.2018 01:36 14,1 C 82 % 1022,4 hPa 0,0 l/m 4,9 km/h (1 Bft) S-SW 207 0 min 0 W/m 11,1 C 14,1 C 9,7 km/h (2 Bft)
16.09.2018 01:39 14,1 C 83 % 1022,4 hPa 0,0 l/m 5,9 km/h (2 Bft) S-SW 200 0 min 0 W/m 11,3 C 14,1 C 9,7 km/h (2 Bft)
16.09.2018 01:42 14,0 C 83 % 1022,4 hPa 0,0 l/m 5,4 km/h (2 Bft) SW 219 0 min 0 W/m 11,2 C 14,0 C 8,0 km/h (2 Bft)
16.09.2018 01:45 14,0 C 84 % 1022,3 hPa 0,0 l/m 5,1 km/h (1 Bft) S-SW 212 0 min 0 W/m 11,3 C 14,0 C 8,0 km/h (2 Bft)
16.09.2018 01:48 14,0 C 84 % 1022,3 hPa 0,0 l/m 4,9 km/h (1 Bft) S 188 0 min 0 W/m 11,3 C 14,0 C 8,0 km/h (2 Bft)
16.09.2018 01:51 13,9 C 84 % 1022,3 hPa 0,0 l/m 4,5 km/h (1 Bft) SW 215 0 min 0 W/m 11,2 C 13,9 C 6,4 km/h (2 Bft)
16.09.2018 01:54 13,9 C 84 % 1022,2 hPa 0,0 l/m 3,9 km/h (1 Bft) S-SW 203 0 min 0 W/m 11,2 C 13,9 C 8,0 km/h (2 Bft)
16.09.2018 01:57 13,8 C 84 % 1022,2 hPa 0,0 l/m 4,1 km/h (1 Bft) S-SW 204 0 min 0 W/m 11,1 C 13,8 C 6,4 km/h (2 Bft)
16.09.2018 02:00 13,8 C 84 % 1022,2 hPa 0,0 l/m 3,3 km/h (1 Bft) S-SW 205 0 min 0 W/m 11,1 C 13,8 C 6,4 km/h (2 Bft)
16.09.2018 02:03 13,7 C 84 % 1022,2 hPa 0,0 l/m 2,6 km/h (1 Bft) S-SW 205 0 min 0 W/m 11,0 C 13,7 C 4,8 km/h (1 Bft)
16.09.2018 02:06 13,6 C 84 % 1022,2 hPa 0,0 l/m 3,4 km/h (1 Bft) S-SW 205 0 min 0 W/m 10,9 C 13,6 C 6,4 km/h (2 Bft)
16.09.2018 02:09 13,6 C 84 % 1022,2 hPa 0,0 l/m 3,7 km/h (1 Bft) S-SW 205 0 min 0 W/m 10,9 C 13,6 C 6,4 km/h (2 Bft)
16.09.2018 02:12 13,5 C 84 % 1022,1 hPa 0,0 l/m 2,8 km/h (1 Bft) S-SW 205 0 min 0 W/m 10,8 C 13,5 C 4,8 km/h (1 Bft)
16.09.2018 02:15 13,4 C 84 % 1022,1 hPa 0,0 l/m 3,2 km/h (1 Bft) S-SW 205 0 min 0 W/m 10,8 C 13,4 C 4,8 km/h (1 Bft)
16.09.2018 02:18 13,3 C 84 % 1022,1 hPa 0,0 l/m 3,5 km/h (1 Bft) S-SW 205 0 min 0 W/m 10,7 C 13,3 C 4,8 km/h (1 Bft)
16.09.2018 02:21 13,3 C 85 % 1022,1 hPa 0,0 l/m 3,3 km/h (1 Bft) S-SW 205 0 min 0 W/m 10,8 C 13,3 C 6,4 km/h (2 Bft)
16.09.2018 02:24 13,3 C 85 % 1022,1 hPa 0,0 l/m 2,5 km/h (1 Bft) S-SW 205 0 min 0 W/m 10,8 C 13,3 C 4,8 km/h (1 Bft)
16.09.2018 02:27 13,2 C 85 % 1022,1 hPa 0,0 l/m 2,9 km/h (1 Bft) S-SW 205 0 min 0 W/m 10,7 C 13,2 C 4,8 km/h (1 Bft)
16.09.2018 02:30 13,2 C 85 % 1022,1 hPa 0,0 l/m 2,8 km/h (1 Bft) S-SW 205 0 min 0 W/m 10,7 C 13,2 C 4,8 km/h (1 Bft)
16.09.2018 02:33 13,1 C 85 % 1022,1 hPa 0,0 l/m 4,0 km/h (1 Bft) S-SW 205 0 min 0 W/m 10,6 C 13,1 C 6,4 km/h (2 Bft)
16.09.2018 02:36 13,1 C 86 % 1022,1 hPa 0,0 l/m 3,9 km/h (1 Bft) SW 215 0 min 0 W/m 10,8 C 13,1 C 6,4 km/h (2 Bft)
16.09.2018 02:39 13,1 C 86 % 1022,1 hPa 0,0 l/m 4,1 km/h (1 Bft) SW 215 0 min 0 W/m 10,8 C 13,1 C 8,0 km/h (2 Bft)
16.09.2018 02:42 13,1 C 87 % 1022,0 hPa 0,0 l/m 2,7 km/h (1 Bft) SW 215 0 min 0 W/m 11,0 C 13,1 C 3,2 km/h (1 Bft)
16.09.2018 02:45 13,1 C 87 % 1022,0 hPa 0,0 l/m 2,7 km/h (1 Bft) SW 214 0 min 0 W/m 11,0 C 13,1 C 6,4 km/h (2 Bft)
16.09.2018 02:48 13,1 C 87 % 1022,0 hPa 0,0 l/m 3,4 km/h (1 Bft) SW 214 0 min 0 W/m 11,0 C 13,1 C 4,8 km/h (1 Bft)
16.09.2018 02:51 13,1 C 87 % 1022,0 hPa 0,0 l/m 3,6 km/h (1 Bft) S-SW 196 0 min 0 W/m 11,0 C 13,1 C 6,4 km/h (2 Bft)
16.09.2018 02:54 13,1 C 87 % 1021,9 hPa 0,0 l/m 3,1 km/h (1 Bft) S-SW 196 0 min 0 W/m 11,0 C 13,1 C 6,4 km/h (2 Bft)
16.09.2018 02:57 13,1 C 87 % 1021,9 hPa 0,0 l/m 3,5 km/h (1 Bft) S 177 0 min 0 W/m 11,0 C 13,1 C 6,4 km/h (2 Bft)
16.09.2018 03:00 13,1 C 88 % 1021,8 hPa 0,0 l/m 4,0 km/h (1 Bft) S 180 0 min 0 W/m 11,2 C 13,1 C 9,7 km/h (2 Bft)
16.09.2018 03:03 13,1 C 88 % 1021,8 hPa 0,0 l/m 4,6 km/h (1 Bft) S 172 0 min 0 W/m 11,2 C 13,1 C 8,0 km/h (2 Bft)
16.09.2018 03:06 13,1 C 88 % 1021,8 hPa 0,0 l/m 3,1 km/h (1 Bft) S 173 0 min 0 W/m 11,2 C 13,1 C 4,8 km/h (1 Bft)
16.09.2018 03:09 13,1 C 88 % 1021,9 hPa 0,0 l/m 3,4 km/h (1 Bft) S 183 0 min 0 W/m 11,2 C 13,1 C 4,8 km/h (1 Bft)
16.09.2018 03:12 13,1 C 88 % 1021,8 hPa 0,0 l/m 2,6 km/h (1 Bft) S 189 0 min 0 W/m 11,2 C 13,1 C 6,4 km/h (2 Bft)
16.09.2018 03:15 13,1 C 89 % 1021,8 hPa 0,0 l/m 2,5 km/h (1 Bft) S 189 0 min 0 W/m 11,3 C 13,1 C 4,8 km/h (1 Bft)
16.09.2018 03:18 13,1 C 89 % 1021,8 hPa 0,0 l/m 2,1 km/h (1 Bft) S 189 0 min 0 W/m 11,3 C 13,1 C 4,8 km/h (1 Bft)
16.09.2018 03:21 13,1 C 89 % 1021,7 hPa 0,0 l/m 3,5 km/h (1 Bft) S 189 0 min 0 W/m 11,3 C 13,1 C 6,4 km/h (2 Bft)
16.09.2018 03:24 13,0 C 89 % 1021,7 hPa 0,0 l/m 3,3 km/h (1 Bft) S 189 0 min 0 W/m 11,2 C 13,0 C 4,8 km/h (1 Bft)
16.09.2018 03:27 13,0 C 89 % 1021,6 hPa 0,0 l/m 2,1 km/h (1 Bft) S 189 0 min 0 W/m 11,2 C 13,0 C 4,8 km/h (1 Bft)
16.09.2018 03:30 13,0 C 89 % 1021,6 hPa 0,0 l/m 2,6 km/h (1 Bft) S 189 0 min 0 W/m 11,2 C 13,0 C 4,8 km/h (1 Bft)
16.09.2018 03:33 12,9 C 89 % 1021,6 hPa 0,0 l/m 3,5 km/h (1 Bft) S 189 0 min 0 W/m 11,1 C 12,9 C 6,4 km/h (2 Bft)
16.09.2018 03:36 12,9 C 89 % 1021,6 hPa 0,0 l/m 4,6 km/h (1 Bft) S 190 0 min 0 W/m 11,1 C 12,9 C 6,4 km/h (2 Bft)
16.09.2018 03:39 12,9 C 89 % 1021,7 hPa 0,0 l/m 2,5 km/h (1 Bft) S 190 0 min 0 W/m 11,1 C 12,9 C 4,8 km/h (1 Bft)
16.09.2018 03:42 12,8 C 89 % 1021,7 hPa 0,0 l/m 2,6 km/h (1 Bft) S 190 0 min 0 W/m 11,0 C 12,8 C 4,8 km/h (1 Bft)
16.09.2018 03:45 12,8 C 89 % 1021,7 hPa 0,0 l/m 2,2 km/h (1 Bft) S 190 0 min 0 W/m 11,0 C 12,8 C 4,8 km/h (1 Bft)
16.09.2018 03:48 12,8 C 89 % 1021,7 hPa 0,0 l/m 2,8 km/h (1 Bft) S 190 0 min 0 W/m 11,0 C 12,8 C 4,8 km/h (1 Bft)
16.09.2018 03:51 12,7 C 89 % 1021,6 hPa 0,0 l/m 2,9 km/h (1 Bft) S 190 0 min 0 W/m 10,9 C 12,7 C 4,8 km/h (1 Bft)
16.09.2018 03:54 12,7 C 89 % 1021,6 hPa 0,0 l/m 2,8 km/h (1 Bft) S 190 0 min 0 W/m 10,9 C 12,7 C 4,8 km/h (1 Bft)
16.09.2018 03:57 12,7 C 89 % 1021,4 hPa 0,0 l/m 1,4 km/h (1 Bft) S 190 0 min 0 W/m 10,9 C 12,7 C 4,8 km/h (1 Bft)
16.09.2018 04:00 12,6 C 89 % 1021,4 hPa 0,0 l/m 2,0 km/h (1 Bft) S 190 0 min 0 W/m 10,8 C 12,6 C 3,2 km/h (1 Bft)
16.09.2018 04:03 12,6 C 89 % 1021,4 hPa 0,0 l/m 2,0 km/h (1 Bft) S 190 0 min 0 W/m 10,8 C 12,6 C 4,8 km/h (1 Bft)
16.09.2018 04:06 12,6 C 89 % 1021,4 hPa 0,0 l/m 1,2 km/h (1 Bft) S 190 0 min 0 W/m 10,8 C 12,6 C 3,2 km/h (1 Bft)
16.09.2018 04:09 12,5 C 89 % 1021,4 hPa 0,0 l/m 0,4 km/h (0 Bft) S 190 0 min 0 W/m 10,7 C 12,5 C 1,6 km/h (1 Bft)
16.09.2018 04:12 12,4 C 89 % 1021,4 hPa 0,0 l/m 0,1 km/h (0 Bft) S 190 0 min 0 W/m 10,6 C 12,4 C 1,6 km/h (1 Bft)
16.09.2018 04:15 12,4 C 89 % 1021,3 hPa 0,0 l/m 1,2 km/h (1 Bft) S 190 0 min 0 W/m 10,6 C 12,4 C 3,2 km/h (1 Bft)
16.09.2018 04:18 12,4 C 89 % 1021,2 hPa 0,0 l/m 1,2 km/h (1 Bft) S 190 0 min 0 W/m 10,6 C 12,4 C 3,2 km/h (1 Bft)
16.09.2018 04:21 12,4 C 89 % 1021,2 hPa 0,0 l/m 1,0 km/h (0 Bft) S 190 0 min 0 W/m 10,6 C 12,4 C 4,8 km/h (1 Bft)
16.09.2018 04:24 12,3 C 89 % 1021,2 hPa 0,0 l/m 1,8 km/h (1 Bft) S 190 0 min 0 W/m 10,5 C 12,3 C 3,2 km/h (1 Bft)
16.09.2018 04:27 12,3 C 89 % 1021,2 hPa 0,0 l/m 1,3 km/h (1 Bft) S 190 0 min 0 W/m 10,5 C 12,3 C 3,2 km/h (1 Bft)
16.09.2018 04:30 12,3 C 89 % 1021,2 hPa 0,0 l/m 1,9 km/h (1 Bft) S 190 0 min 0 W/m 10,5 C 12,3 C 6,4 km/h (2 Bft)
16.09.2018 04:33 12,2 C 89 % 1021,2 hPa 0,0 l/m 2,0 km/h (1 Bft) S 190 0 min 0 W/m 10,4 C 12,2 C 4,8 km/h (1 Bft)
16.09.2018 04:36 12,2 C 90 % 1021,2 hPa 0,0 l/m 1,9 km/h (1 Bft) S 190 0 min 0 W/m 10,6 C 12,2 C 4,8 km/h (1 Bft)
16.09.2018 04:39 12,2 C 90 % 1021,2 hPa 0,0 l/m 2,7 km/h (1 Bft) S 190 0 min 0 W/m 10,6 C 12,2 C 4,8 km/h (1 Bft)
16.09.2018 04:42 12,3 C 90 % 1021,1 hPa 0,0 l/m 2,0 km/h (1 Bft) S 190 0 min 0 W/m 10,7 C 12,3 C 3,2 km/h (1 Bft)
16.09.2018 04:45 12,3 C 90 % 1021,2 hPa 0,0 l/m 1,7 km/h (1 Bft) S 190 0 min 0 W/m 10,7 C 12,3 C 3,2 km/h (1 Bft)
16.09.2018 04:48 12,3 C 90 % 1021,1 hPa 0,0 l/m 2,4 km/h (1 Bft) S 188 0 min 0 W/m 10,7 C 12,3 C 4,8 km/h (1 Bft)
16.09.2018 04:51 12,3 C 90 % 1021,0 hPa 0,0 l/m 2,6 km/h (1 Bft) S 188 0 min 0 W/m 10,7 C 12,3 C 6,4 km/h (2 Bft)
16.09.2018 04:54 12,3 C 91 % 1021,0 hPa 0,0 l/m 2,1 km/h (1 Bft) S 188 0 min 0 W/m 10,9 C 12,3 C 3,2 km/h (1 Bft)
16.09.2018 04:57 12,4 C 91 % 1021,0 hPa 0,0 l/m 3,8 km/h (1 Bft) S 173 0 min 0 W/m 11,0 C 12,4 C 8,0 km/h (2 Bft)
16.09.2018 05:00 12,4 C 91 % 1021,0 hPa 0,0 l/m 4,3 km/h (1 Bft) S 178 0 min 0 W/m 11,0 C 12,4 C 9,7 km/h (2 Bft)
16.09.2018 05:03 12,4 C 91 % 1021,0 hPa 0,0 l/m 3,4 km/h (1 Bft) S 180 0 min 0 W/m 11,0 C 12,4 C 6,4 km/h (2 Bft)
16.09.2018 05:06 12,5 C 91 % 1021,0 hPa 0,0 l/m 3,0 km/h (1 Bft) S 180 0 min 0 W/m 11,1 C 12,5 C 6,4 km/h (2 Bft)
16.09.2018 05:09 12,6 C 91 % 1021,0 hPa 0,0 l/m 3,9 km/h (1 Bft) S-SO 160 0 min 0 W/m 11,2 C 12,6 C 8,0 km/h (2 Bft)
16.09.2018 05:12 12,6 C 91 % 1021,0 hPa 0,0 l/m 5,2 km/h (1 Bft) S-SO 168 0 min 0 W/m 11,2 C 12,6 C 8,0 km/h (2 Bft)
16.09.2018 05:15 12,6 C 92 % 1021,0 hPa 0,0 l/m 4,7 km/h (1 Bft) S-SO 168 0 min 0 W/m 11,3 C 12,6 C 9,7 km/h (2 Bft)
16.09.2018 05:18 12,6 C 91 % 1021,0 hPa 0,0 l/m 4,6 km/h (1 Bft) S-SO 163 0 min 0 W/m 11,2 C 12,6 C 8,0 km/h (2 Bft)
16.09.2018 05:21 12,7 C 92 % 1021,0 hPa 0,0 l/m 3,9 km/h (1 Bft) S-SO 161 0 min 0 W/m 11,4 C 12,7 C 9,7 km/h (2 Bft)
16.09.2018 05:24 12,7 C 92 % 1020,9 hPa 0,0 l/m 5,0 km/h (1 Bft) S 178 0 min 0 W/m 11,4 C 12,7 C 8,0 km/h (2 Bft)
16.09.2018 05:27 12,7 C 92 % 1021,0 hPa 0,0 l/m 5,2 km/h (1 Bft) S 173 0 min 0 W/m 11,4 C 12,7 C 11,3 km/h (2 Bft)
16.09.2018 05:30 12,7 C 92 % 1020,9 hPa 0,0 l/m 7,3 km/h (2 Bft) S 183 0 min 0 W/m 11,4 C 12,1 C 12,9 km/h (3 Bft)
16.09.2018 05:33 12,7 C 92 % 1021,0 hPa 0,0 l/m 5,8 km/h (2 Bft) S-SW 193 0 min 0 W/m 11,4 C 12,7 C 9,7 km/h (2 Bft)
16.09.2018 05:36 12,7 C 92 % 1021,0 hPa 0,0 l/m 5,8 km/h (2 Bft) S 182 0 min 0 W/m 11,4 C 12,7 C 11,3 km/h (2 Bft)
16.09.2018 05:39 12,7 C 92 % 1021,0 hPa 0,0 l/m 5,0 km/h (1 Bft) S 177 0 min 0 W/m 11,4 C 12,7 C 9,7 km/h (2 Bft)
16.09.2018 05:42 12,7 C 92 % 1021,0 hPa 0,0 l/m 6,3 km/h (2 Bft) S 173 0 min 0 W/m 11,4 C 12,7 C 11,3 km/h (2 Bft)
16.09.2018 05:45 12,7 C 92 % 1021,0 hPa 0,0 l/m 5,9 km/h (2 Bft) S 173 0 min 0 W/m 11,4 C 12,7 C 9,7 km/h (2 Bft)
16.09.2018 05:48 12,7 C 92 % 1020,9 hPa 0,0 l/m 5,5 km/h (2 Bft) S-SO 153 0 min 0 W/m 11,4 C 12,7 C 9,7 km/h (2 Bft)
16.09.2018 05:51 12,7 C 92 % 1020,9 hPa 0,0 l/m 6,0 km/h (2 Bft) S 188 0 min 0 W/m 11,4 C 12,7 C 9,7 km/h (2 Bft)
16.09.2018 05:54 12,7 C 92 % 1020,9 hPa 0,0 l/m 6,0 km/h (2 Bft) S-SO 167 0 min 0 W/m 11,4 C 12,7 C 9,7 km/h (2 Bft)
16.09.2018 05:57 12,7 C 92 % 1020,9 hPa 0,0 l/m 5,8 km/h (2 Bft) S 175 0 min 0 W/m 11,4 C 12,7 C 9,7 km/h (2 Bft)
16.09.2018 06:00 12,7 C 92 % 1020,9 hPa 0,0 l/m 6,5 km/h (2 Bft) S 178 0 min 0 W/m 11,4 C 12,7 C 14,5 km/h (3 Bft)
16.09.2018 06:03 12,7 C 92 % 1020,9 hPa 0,0 l/m 6,5 km/h (2 Bft) S 178 0 min 0 W/m 11,4 C 12,7 C 9,7 km/h (2 Bft)
16.09.2018 06:06 12,7 C 92 % 1020,9 hPa 0,0 l/m 5,2 km/h (1 Bft) S 178 0 min 0 W/m 11,4 C 12,7 C 12,9 km/h (3 Bft)
16.09.2018 06:09 12,7 C 92 % 1020,9 hPa 0,0 l/m 4,4 km/h (1 Bft) S-SW 194 0 min 0 W/m 11,4 C 12,7 C 8,0 km/h (2 Bft)
16.09.2018 06:12 12,7 C 92 % 1020,9 hPa 0,0 l/m 5,3 km/h (1 Bft) S-SW 200 0 min 0 W/m 11,4 C 12,7 C 12,9 km/h (3 Bft)
16.09.2018 06:15 12,7 C 92 % 1020,9 hPa 0,0 l/m 4,5 km/h (1 Bft) S 185 0 min 0 W/m 11,4 C 12,7 C 8,0 km/h (2 Bft)
16.09.2018 06:18 12,7 C 92 % 1020,9 hPa 0,0 l/m 5,5 km/h (2 Bft) S 180 0 min 0 W/m 11,4 C 12,7 C 8,0 km/h (2 Bft)
16.09.2018 06:21 12,7 C 92 % 1020,9 hPa 0,0 l/m 6,3 km/h (2 Bft) S 189 0 min 0 W/m 11,4 C 12,7 C 11,3 km/h (2 Bft)
16.09.2018 06:24 12,7 C 92 % 1020,9 hPa 0,0 l/m 6,3 km/h (2 Bft) S 176 0 min 0 W/m 11,4 C 12,7 C 9,7 km/h (2 Bft)
16.09.2018 06:27 12,7 C 93 % 1020,9 hPa 0,0 l/m 5,6 km/h (2 Bft) S 169 0 min 0 W/m 11,6 C 12,7 C 11,3 km/h (2 Bft)
16.09.2018 06:30 12,7 C 93 % 1021,0 hPa 0,0 l/m 6,1 km/h (2 Bft) S 186 0 min 0 W/m 11,6 C 12,7 C 16,1 km/h (3 Bft)
16.09.2018 06:33 12,7 C 93 % 1021,0 hPa 0,0 l/m 6,5 km/h (2 Bft) S 174 0 min 0 W/m 11,6 C 12,7 C 11,3 km/h (2 Bft)
16.09.2018 06:36 12,7 C 93 % 1021,1 hPa 0,0 l/m 4,4 km/h (1 Bft) S 172 0 min 0 W/m 11,6 C 12,7 C 8,0 km/h (2 Bft)
16.09.2018 06:39 12,7 C 93 % 1021,2 hPa 0,0 l/m 4,9 km/h (1 Bft) S-SW 196 0 min 0 W/m 11,6 C 12,7 C 9,7 km/h (2 Bft)
16.09.2018 06:42 12,6 C 93 % 1021,2 hPa 0,0 l/m 4,5 km/h (1 Bft) S 180 0 min 0 W/m 11,5 C 12,6 C 9,7 km/h (2 Bft)
16.09.2018 06:45 12,6 C 93 % 1021,2 hPa 0,0 l/m 4,5 km/h (1 Bft) S 189 0 min 0 W/m 11,5 C 12,6 C 6,4 km/h (2 Bft)
16.09.2018 06:48 12,6 C 93 % 1021,2 hPa 0,0 l/m 4,5 km/h (1 Bft) S 175 0 min 0 W/m 11,5 C 12,6 C 8,0 km/h (2 Bft)
16.09.2018 06:51 12,6 C 93 % 1021,1 hPa 0,0 l/m 3,8 km/h (1 Bft) S 191 0 min 0 W/m 11,5 C 12,6 C 6,4 km/h (2 Bft)
16.09.2018 06:54 12,6 C 93 % 1021,2 hPa 0,0 l/m 4,8 km/h (1 Bft) S 186 0 min 0 W/m 11,5 C 12,6 C 8,0 km/h (2 Bft)
16.09.2018 06:57 12,6 C 93 % 1021,2 hPa 0,0 l/m 4,9 km/h (1 Bft) S-SW 193 0 min 0 W/m 11,5 C 12,6 C 8,0 km/h (2 Bft)
16.09.2018 07:00 12,5 C 93 % 1021,2 hPa 0,0 l/m 5,1 km/h (1 Bft) S 177 0 min 0 W/m 11,4 C 12,5 C 9,7 km/h (2 Bft)
16.09.2018 07:03 12,5 C 93 % 1021,2 hPa 0,0 l/m 6,7 km/h (2 Bft) S 176 0 min 0 W/m 11,4 C 12,3 C 9,7 km/h (2 Bft)
16.09.2018 07:06 12,4 C 93 % 1021,2 hPa 0,0 l/m 7,5 km/h (2 Bft) S 187 0 min 0 W/m 11,3 C 11,7 C 14,5 km/h (3 Bft)
16.09.2018 07:09 12,4 C 93 % 1021,3 hPa 0,0 l/m 7,0 km/h (2 Bft) S-SO 159 0 min 5 W/m 11,3 C 12,0 C 11,3 km/h (2 Bft)
16.09.2018 07:12 12,4 C 92 % 1021,3 hPa 0,0 l/m 6,7 km/h (2 Bft) S 180 0 min 5 W/m 11,1 C 12,2 C 11,3 km/h (2 Bft)
16.09.2018 07:15 12,4 C 92 % 1021,2 hPa 0,0 l/m 7,6 km/h (2 Bft) S 172 0 min 7 W/m 11,1 C 11,6 C 12,9 km/h (3 Bft)
16.09.2018 07:18 12,3 C 92 % 1021,2 hPa 0,0 l/m 6,4 km/h (2 Bft) S 189 0 min 9 W/m 11,0 C 12,3 C 9,7 km/h (2 Bft)
16.09.2018 07:21 12,3 C 93 % 1021,2 hPa 0,0 l/m 6,6 km/h (2 Bft) S 181 0 min 9 W/m 11,2 C 12,2 C 16,1 km/h (3 Bft)
16.09.2018 07:24 12,3 C 93 % 1021,2 hPa 0,0 l/m 7,0 km/h (2 Bft) S 189 0 min 11 W/m 11,2 C 11,9 C 11,3 km/h (2 Bft)
16.09.2018 07:27 12,3 C 93 % 1021,1 hPa 0,0 l/m 6,4 km/h (2 Bft) S 171 0 min 11 W/m 11,2 C 12,3 C 11,3 km/h (2 Bft)
16.09.2018 07:30 12,3 C 93 % 1021,1 hPa 0,0 l/m 6,7 km/h (2 Bft) S 191 0 min 11 W/m 11,2 C 12,1 C 11,3 km/h (2 Bft)
16.09.2018 07:33 12,3 C 93 % 1021,2 hPa 0,0 l/m 6,8 km/h (2 Bft) S-SW 196 0 min 11 W/m 11,2 C 12,0 C 11,3 km/h (2 Bft)
16.09.2018 07:36 12,3 C 93 % 1021,1 hPa 0,0 l/m 7,0 km/h (2 Bft) S 180 0 min 12 W/m 11,2 C 11,9 C 11,3 km/h (2 Bft)
16.09.2018 07:39 12,3 C 93 % 1021,2 hPa 0,0 l/m 7,2 km/h (2 Bft) S-SO 168 0 min 14 W/m 11,2 C 11,8 C 11,3 km/h (2 Bft)
16.09.2018 07:42 12,3 C 93 % 1021,2 hPa 0,0 l/m 6,8 km/h (2 Bft) S 180 0 min 14 W/m 11,2 C 12,0 C 9,7 km/h (2 Bft)
16.09.2018 07:45 12,3 C 93 % 1021,2 hPa 0,0 l/m 7,4 km/h (2 Bft) S-SO 162 0 min 16 W/m 11,2 C 11,6 C 12,9 km/h (3 Bft)
16.09.2018 07:48 12,3 C 93 % 1021,2 hPa 0,0 l/m 6,4 km/h (2 Bft) S-SW 203 0 min 18 W/m 11,2 C 12,3 C 9,7 km/h (2 Bft)
16.09.2018 07:51 12,2 C 93 % 1021,2 hPa 0,0 l/m 6,3 km/h (2 Bft) S-SW 205 0 min 19 W/m 11,1 C 12,2 C 11,3 km/h (2 Bft)
16.09.2018 07:54 12,2 C 93 % 1021,3 hPa 0,0 l/m 5,4 km/h (2 Bft) S-SW 192 0 min 21 W/m 11,1 C 12,2 C 11,3 km/h (2 Bft)
16.09.2018 07:57 12,3 C 93 % 1021,3 hPa 0,0 l/m 5,9 km/h (2 Bft) W-SW 244 0 min 23 W/m 11,2 C 12,3 C 12,9 km/h (3 Bft)
16.09.2018 08:00 12,3 C 93 % 1021,3 hPa 0,0 l/m 5,9 km/h (2 Bft) S-SW 195 0 min 26 W/m 11,2 C 12,3 C 11,3 km/h (2 Bft)
16.09.2018 08:03 12,3 C 93 % 1021,3 hPa 0,0 l/m 5,6 km/h (2 Bft) S 179 0 min 30 W/m 11,2 C 12,3 C 11,3 km/h (2 Bft)
16.09.2018 08:06 12,3 C 93 % 1021,3 hPa 0,0 l/m 4,7 km/h (1 Bft) S 190 0 min 39 W/m 11,2 C 12,3 C 8,0 km/h (2 Bft)
16.09.2018 08:09 12,3 C 93 % 1021,3 hPa 0,0 l/m 4,5 km/h (1 Bft) S-SW 193 0 min 53 W/m 11,2 C 12,3 C 8,0 km/h (2 Bft)
16.09.2018 08:12 12,4 C 93 % 1021,3 hPa 0,0 l/m 4,0 km/h (1 Bft) S-SO 164 0 min 62 W/m 11,3 C 12,4 C 8,0 km/h (2 Bft)
16.09.2018 08:15 12,5 C 93 % 1021,3 hPa 0,0 l/m 3,7 km/h (1 Bft) S 172 0 min 65 W/m 11,4 C 12,5 C 8,0 km/h (2 Bft)
16.09.2018 08:18 12,7 C 93 % 1021,2 hPa 0,0 l/m 4,3 km/h (1 Bft) S 182 0 min 67 W/m 11,6 C 12,7 C 9,7 km/h (2 Bft)
16.09.2018 08:21 12,7 C 93 % 1021,2 hPa 0,0 l/m 4,9 km/h (1 Bft) S 181 0 min 70 W/m 11,6 C 12,7 C 9,7 km/h (2 Bft)
16.09.2018 08:24 12,8 C 93 % 1021,2 hPa 0,0 l/m 6,2 km/h (2 Bft) S 188 0 min 69 W/m 11,7 C 12,8 C 9,7 km/h (2 Bft)
16.09.2018 08:27 12,9 C 93 % 1021,2 hPa 0,0 l/m 5,0 km/h (1 Bft) S 178 0 min 67 W/m 11,8 C 12,9 C 9,7 km/h (2 Bft)
16.09.2018 08:30 13,0 C 93 % 1021,1 hPa 0,0 l/m 6,1 km/h (2 Bft) S-SW 192 0 min 69 W/m 11,9 C 13,0 C 9,7 km/h (2 Bft)
16.09.2018 08:33 13,1 C 92 % 1021,2 hPa 0,0 l/m 6,8 km/h (2 Bft) S 175 0 min 70 W/m 11,8 C 12,9 C 9,7 km/h (2 Bft)
16.09.2018 08:36 13,1 C 92 % 1021,2 hPa 0,0 l/m 6,0 km/h (2 Bft) S 177 0 min 74 W/m 11,8 C 13,1 C 11,3 km/h (2 Bft)
16.09.2018 08:39 13,2 C 92 % 1021,2 hPa 0,0 l/m 5,6 km/h (2 Bft) S 183 0 min 76 W/m 11,9 C 13,2 C 8,0 km/h (2 Bft)
16.09.2018 08:42 13,2 C 92 % 1021,1 hPa 0,0 l/m 7,6 km/h (2 Bft) S 189 0 min 76 W/m 11,9 C 12,5 C 16,1 km/h (3 Bft)
16.09.2018 08:45 13,3 C 91 % 1021,1 hPa 0,0 l/m 6,6 km/h (2 Bft) S-SO 166 0 min 77 W/m 11,9 C 13,2 C 11,3 km/h (2 Bft)
16.09.2018 08:48 13,3 C 91 % 1021,1 hPa 0,0 l/m 4,3 km/h (1 Bft) SO 143 0 min 79 W/m 11,9 C 13,3 C 8,0 km/h (2 Bft)
16.09.2018 08:51 13,3 C 91 % 1021,1 hPa 0,0 l/m 3,1 km/h (1 Bft) S 177 0 min 79 W/m 11,9 C 13,3 C 6,4 km/h (2 Bft)
16.09.2018 08:54 13,4 C 91 % 1021,1 hPa 0,0 l/m 4,5 km/h (1 Bft) S 177 0 min 76 W/m 12,0 C 13,4 C 9,7 km/h (2 Bft)
16.09.2018 08:57 13,4 C 91 % 1021,1 hPa 0,0 l/m 4,7 km/h (1 Bft) S-SO 161 0 min 69 W/m 12,0 C 13,4 C 8,0 km/h (2 Bft)
16.09.2018 09:00 13,4 C 91 % 1021,1 hPa 0,0 l/m 4,7 km/h (1 Bft) S 172 0 min 65 W/m 12,0 C 13,4 C 8,0 km/h (2 Bft)
16.09.2018 09:03 13,4 C 90 % 1021,1 hPa 0,0 l/m 5,1 km/h (1 Bft) S-SO 160 0 min 62 W/m 11,8 C 13,4 C 12,9 km/h (3 Bft)
16.09.2018 09:06 13,4 C 90 % 1021,1 hPa 0,0 l/m 4,4 km/h (1 Bft) S-SO 154 0 min 60 W/m 11,8 C 13,4 C 12,9 km/h (3 Bft)
16.09.2018 09:09 13,3 C 90 % 1021,0 hPa 0,0 l/m 7,0 km/h (2 Bft) O-SO 123 0 min 63 W/m 11,7 C 12,9 C 12,9 km/h (3 Bft)
16.09.2018 09:12 13,3 C 90 % 1021,0 hPa 0,0 l/m 4,1 km/h (1 Bft) S-SO 156 0 min 70 W/m 11,7 C 13,3 C 9,7 km/h (2 Bft)
16.09.2018 09:15 13,3 C 91 % 1021,0 hPa 0,0 l/m 5,0 km/h (1 Bft) S-SO 150 0 min 76 W/m 11,9 C 13,3 C 11,3 km/h (2 Bft)
16.09.2018 09:18 13,2 C 91 % 1021,0 hPa 0,0 l/m 5,7 km/h (2 Bft) SO 133 0 min 77 W/m 11,8 C 13,2 C 12,9 km/h (3 Bft)
16.09.2018 09:21 13,2 C 91 % 1021,0 hPa 0,0 l/m 6,6 km/h (2 Bft) S-SO 149 0 min 74 W/m 11,8 C 13,1 C 12,9 km/h (3 Bft)
16.09.2018 09:24 13,2 C 91 % 1020,9 hPa 0,0 l/m 4,8 km/h (1 Bft) S-SO 157 0 min 69 W/m 11,8 C 13,2 C 9,7 km/h (2 Bft)
16.09.2018 09:27 13,2 C 90 % 1020,9 hPa 0,0 l/m 7,3 km/h (2 Bft) S-SO 161 0 min 56 W/m 11,6 C 12,6 C 12,9 km/h (3 Bft)
16.09.2018 09:30 13,2 C 90 % 1020,9 hPa 0,0 l/m 7,0 km/h (2 Bft) S 171 0 min 54 W/m 11,6 C 12,8 C 11,3 km/h (2 Bft)
16.09.2018 09:33 13,2 C 90 % 1020,9 hPa 0,0 l/m 5,8 km/h (2 Bft) O-SO 123 0 min 53 W/m 11,6 C 13,2 C 9,7 km/h (2 Bft)
16.09.2018 09:36 13,3 C 90 % 1021,0 hPa 0,0 l/m 6,5 km/h (2 Bft) S 172 0 min 69 W/m 11,7 C 13,3 C 14,5 km/h (3 Bft)
16.09.2018 09:39 13,3 C 90 % 1020,9 hPa 0,0 l/m 6,0 km/h (2 Bft) S-SO 166 0 min 65 W/m 11,7 C 13,3 C 14,5 km/h (3 Bft)
16.09.2018 09:42 13,4 C 90 % 1020,9 hPa 0,0 l/m 8,4 km/h (2 Bft) O 94 0 min 160 W/m 11,8 C 12,2 C 14,5 km/h (3 Bft)
16.09.2018 09:45 13,6 C 90 % 1020,8 hPa 0,0 l/m 10,4 km/h (2 Bft) O-SO 117 3 min 318 W/m 12,0 C 11,4 C 16,1 km/h (3 Bft)
16.09.2018 09:48 13,8 C 90 % 1020,8 hPa 0,0 l/m 6,8 km/h (2 Bft) S 184 3 min 281 W/m 12,2 C 13,6 C 12,9 km/h (3 Bft)
16.09.2018 09:51 14,2 C 89 % 1020,8 hPa 0,0 l/m 5,9 km/h (2 Bft) S-SO 165 3 min 336 W/m 12,4 C 14,2 C 11,3 km/h (2 Bft)
16.09.2018 09:54 14,5 C 89 % 1020,8 hPa 0,0 l/m 6,7 km/h (2 Bft) S 188 3 min 388 W/m 12,7 C 14,3 C 11,3 km/h (2 Bft)
16.09.2018 09:57 14,8 C 87 % 1020,8 hPa 0,0 l/m 8,7 km/h (2 Bft) SO 128 3 min 462 W/m 12,7 C 13,5 C 14,5 km/h (3 Bft)
16.09.2018 10:00 15,1 C 86 % 1020,8 hPa 0,0 l/m 8,2 km/h (2 Bft) S 180 3 min 494 W/m 12,8 C 14,1 C 16,1 km/h (3 Bft)
16.09.2018 10:03 15,2 C 85 % 1020,7 hPa 0,0 l/m 8,9 km/h (2 Bft) S 185 0 min 192 W/m 12,7 C 13,9 C 14,5 km/h (3 Bft)
16.09.2018 10:06 15,2 C 85 % 1020,7 hPa 0,0 l/m 7,3 km/h (2 Bft) S-SO 150 0 min 185 W/m 12,7 C 14,7 C 14,5 km/h (3 Bft)
16.09.2018 10:09 15,2 C 84 % 1020,7 hPa 0,0 l/m 6,2 km/h (2 Bft) S-SO 150 0 min 160 W/m 12,5 C 15,2 C 16,1 km/h (3 Bft)
16.09.2018 10:12 15,2 C 85 % 1020,7 hPa 0,0 l/m 6,1 km/h (2 Bft) S-SO 150 3 min 329 W/m 12,7 C 15,2 C 16,1 km/h (3 Bft)
16.09.2018 10:15 15,4 C 84 % 1020,8 hPa 0,0 l/m 7,0 km/h (2 Bft) SO 146 3 min 417 W/m 12,7 C 15,1 C 12,9 km/h (3 Bft)
16.09.2018 10:18 15,7 C 84 % 1020,7 hPa 0,0 l/m 7,1 km/h (2 Bft) S-SO 157 3 min 385 W/m 13,0 C 15,3 C 12,9 km/h (3 Bft)
16.09.2018 10:21 15,8 C 83 % 1020,7 hPa 0,0 l/m 7,1 km/h (2 Bft) SO 126 3 min 376 W/m 12,9 C 15,4 C 12,9 km/h (3 Bft)
16.09.2018 10:24 15,8 C 83 % 1020,7 hPa 0,0 l/m 7,2 km/h (2 Bft) S-SO 165 3 min 427 W/m 12,9 C 15,4 C 12,9 km/h (3 Bft)
16.09.2018 10:27 16,0 C 83 % 1020,7 hPa 0,0 l/m 5,8 km/h (2 Bft) S 177 3 min 443 W/m 13,1 C 16,0 C 11,3 km/h (2 Bft)
16.09.2018 10:30 16,4 C 83 % 1020,6 hPa 0,0 l/m 6,0 km/h (2 Bft) S 183 3 min 471 W/m 13,5 C 16,4 C 11,3 km/h (2 Bft)
16.09.2018 10:33 16,7 C 82 % 1020,6 hPa 0,0 l/m 8,5 km/h (2 Bft) S-SW 200 3 min 383 W/m 13,6 C 15,6 C 17,7 km/h (3 Bft)
16.09.2018 10:36 16,7 C 80 % 1020,6 hPa 0,0 l/m 11,1 km/h (2 Bft) S 184 3 min 357 W/m 13,2 C 14,6 C 22,5 km/h (4 Bft)
16.09.2018 10:39 16,8 C 79 % 1020,6 hPa 0,0 l/m 9,6 km/h (2 Bft) S-SO 168 3 min 327 W/m 13,1 C 15,3 C 17,7 km/h (3 Bft)
16.09.2018 10:42 16,8 C 78 % 1020,6 hPa 0,0 l/m 8,9 km/h (2 Bft) S-SW 206 0 min 213 W/m 12,9 C 15,6 C 14,5 km/h (3 Bft)
16.09.2018 10:45 16,9 C 78 % 1020,6 hPa 0,0 l/m 9,7 km/h (2 Bft) S-SW 195 3 min 454 W/m 13,0 C 15,3 C 14,5 km/h (3 Bft)
16.09.2018 10:48 17,1 C 77 % 1020,6 hPa 0,0 l/m 11,7 km/h (2 Bft) O-SO 119 3 min 452 W/m 13,0 C 14,8 C 20,9 km/h (4 Bft)
16.09.2018 10:51 17,4 C 77 % 1020,6 hPa 0,0 l/m 9,7 km/h (2 Bft) SW 227 3 min 462 W/m 13,3 C 15,9 C 17,7 km/h (3 Bft)
16.09.2018 10:54 17,5 C 75 % 1020,5 hPa 0,0 l/m 10,3 km/h (2 Bft) SW 232 3 min 364 W/m 13,0 C 15,8 C 22,5 km/h (4 Bft)
16.09.2018 10:57 17,6 C 73 % 1020,5 hPa 0,0 l/m 14,0 km/h (3 Bft) S-SW 213 3 min 471 W/m 12,7 C 14,6 C 24,1 km/h (4 Bft)
16.09.2018 11:00 17,7 C 74 % 1020,5 hPa 0,0 l/m 11,0 km/h (2 Bft) SW 232 3 min 478 W/m 13,0 C 15,7 C 19,3 km/h (3 Bft)
16.09.2018 11:03 17,8 C 74 % 1020,5 hPa 0,0 l/m 12,1 km/h (2 Bft) S-SW 205 3 min 450 W/m 13,1 C 15,5 C 19,3 km/h (3 Bft)
16.09.2018 11:06 17,8 C 73 % 1020,4 hPa 0,0 l/m 12,5 km/h (2 Bft) SW 218 3 min 480 W/m 12,9 C 15,3 C 24,1 km/h (4 Bft)
16.09.2018 11:09 17,9 C 73 % 1020,4 hPa 0,0 l/m 15,5 km/h (3 Bft) SW 236 3 min 489 W/m 13,0 C 14,6 C 24,1 km/h (4 Bft)
16.09.2018 11:12 17,9 C 73 % 1020,4 hPa 0,0 l/m 14,1 km/h (3 Bft) S 185 3 min 522 W/m 13,0 C 15,0 C 27,4 km/h (5 Bft)
16.09.2018 11:15 18,1 C 73 % 1020,3 hPa 0,0 l/m 11,6 km/h (2 Bft) W-SW 244 3 min 538 W/m 13,2 C 16,0 C 20,9 km/h (4 Bft)
16.09.2018 11:18 18,2 C 73 % 1020,3 hPa 0,0 l/m 15,4 km/h (3 Bft) SW 229 3 min 540 W/m 13,3 C 15,0 C 27,4 km/h (5 Bft)
16.09.2018 11:21 18,2 C 72 % 1020,3 hPa 0,0 l/m 17,1 km/h (3 Bft) S-SW 198 3 min 531 W/m 13,1 C 14,5 C 27,4 km/h (5 Bft)
16.09.2018 11:24 18,2 C 72 % 1020,3 hPa 0,0 l/m 17,4 km/h (3 Bft) SW 219 3 min 554 W/m 13,1 C 14,5 C 27,4 km/h (5 Bft)
16.09.2018 11:27 18,2 C 71 % 1020,4 hPa 0,0 l/m 17,9 km/h (3 Bft) SW 231 3 min 557 W/m 12,9 C 14,3 C 29,0 km/h (5 Bft)
16.09.2018 11:30 18,2 C 71 % 1020,4 hPa 0,0 l/m 18,8 km/h (3 Bft) SW 231 3 min 541 W/m 12,9 C 14,1 C 29,0 km/h (5 Bft)
16.09.2018 11:33 18,3 C 71 % 1020,4 hPa 0,0 l/m 13,9 km/h (3 Bft) S-SW 200 3 min 533 W/m 12,9 C 15,5 C 22,5 km/h (4 Bft)
16.09.2018 11:36 18,3 C 70 % 1020,3 hPa 0,0 l/m 16,7 km/h (3 Bft) SW 225 3 min 496 W/m 12,7 C 14,8 C 25,7 km/h (4 Bft)
16.09.2018 11:39 18,4 C 70 % 1020,2 hPa 0,0 l/m 11,3 km/h (2 Bft) S-SW 204 3 min 506 W/m 12,8 C 16,4 C 24,1 km/h (4 Bft)
16.09.2018 11:42 18,7 C 70 % 1020,2 hPa 0,0 l/m 12,5 km/h (2 Bft) S-SW 203 3 min 515 W/m 13,1 C 16,4 C 20,9 km/h (4 Bft)
16.09.2018 11:45 18,7 C 67 % 1020,1 hPa 0,0 l/m 16,0 km/h (3 Bft) S 190 3 min 475 W/m 12,4 C 15,4 C 25,7 km/h (4 Bft)
16.09.2018 11:48 18,7 C 67 % 1020,1 hPa 0,0 l/m 15,3 km/h (3 Bft) S-SW 207 3 min 431 W/m 12,4 C 15,6 C 25,7 km/h (4 Bft)
16.09.2018 11:51 18,6 C 68 % 1020,0 hPa 0,0 l/m 13,1 km/h (3 Bft) S-SW 201 3 min 341 W/m 12,6 C 16,1 C 19,3 km/h (3 Bft)
16.09.2018 11:54 18,7 C 68 % 1020,0 hPa 0,0 l/m 13,9 km/h (3 Bft) W-SW 253 3 min 531 W/m 12,7 C 16,0 C 20,9 km/h (4 Bft)
16.09.2018 11:57 18,7 C 67 % 1020,0 hPa 0,0 l/m 15,4 km/h (3 Bft) SW 215 0 min 274 W/m 12,4 C 15,6 C 27,4 km/h (5 Bft)
16.09.2018 12:00 18,5 C 68 % 1020,0 hPa 0,0 l/m 13,4 km/h (3 Bft) SW 229 0 min 262 W/m 12,5 C 15,9 C 20,9 km/h (4 Bft)
16.09.2018 12:03 18,4 C 68 % 1019,9 hPa 0,0 l/m 13,5 km/h (3 Bft) S 175 0 min 253 W/m 12,4 C 15,7 C 25,7 km/h (4 Bft)
16.09.2018 12:06 18,4 C 68 % 1019,9 hPa 0,0 l/m 13,2 km/h (3 Bft) SW 221 0 min 262 W/m 12,4 C 15,8 C 24,1 km/h (4 Bft)
16.09.2018 12:09 18,6 C 69 % 1019,9 hPa 0,0 l/m 10,1 km/h (2 Bft) SW 215 3 min 489 W/m 12,8 C 17,1 C 19,3 km/h (3 Bft)
16.09.2018 12:12 18,9 C 69 % 1019,9 hPa 0,0 l/m 13,6 km/h (3 Bft) S-SW 213 3 min 480 W/m 13,1 C 16,3 C 25,7 km/h (4 Bft)
16.09.2018 12:15 19,3 C 67 % 1019,8 hPa 0,0 l/m 11,8 km/h (2 Bft) SW 221 3 min 338 W/m 13,0 C 17,3 C 17,7 km/h (3 Bft)
16.09.2018 12:18 19,3 C 66 % 1019,9 hPa 0,0 l/m 15,8 km/h (3 Bft) S-SW 213 3 min 388 W/m 12,8 C 16,2 C 22,5 km/h (4 Bft)
16.09.2018 12:21 19,3 C 67 % 1019,8 hPa 0,0 l/m 13,4 km/h (3 Bft) S-SW 202 3 min 496 W/m 13,0 C 16,8 C 20,9 km/h (4 Bft)
16.09.2018 12:24 19,4 C 67 % 1019,8 hPa 0,0 l/m 11,0 km/h (2 Bft) SW 220 3 min 385 W/m 13,1 C 17,6 C 17,7 km/h (3 Bft)
16.09.2018 12:27 19,5 C 67 % 1019,8 hPa 0,0 l/m 12,8 km/h (3 Bft) SW 221 0 min 311 W/m 13,2 C 17,2 C 19,3 km/h (3 Bft)
16.09.2018 12:30 19,5 C 66 % 1019,8 hPa 0,0 l/m 12,9 km/h (3 Bft) W-SW 258 3 min 345 W/m 13,0 C 17,2 C 19,3 km/h (3 Bft)
16.09.2018 12:33 19,5 C 66 % 1019,7 hPa 0,0 l/m 14,0 km/h (3 Bft) SW 227 3 min 527 W/m 13,0 C 16,9 C 24,1 km/h (4 Bft)
16.09.2018 12:36 19,5 C 66 % 1019,7 hPa 0,0 l/m 11,6 km/h (2 Bft) S-SW 201 3 min 480 W/m 13,0 C 17,6 C 20,9 km/h (4 Bft)
16.09.2018 12:39 19,7 C 68 % 1019,6 hPa 0,0 l/m 10,8 km/h (2 Bft) S 184 3 min 364 W/m 13,6 C 18,0 C 20,9 km/h (4 Bft)
16.09.2018 12:42 19,7 C 66 % 1019,6 hPa 0,0 l/m 13,0 km/h (3 Bft) SW 223 3 min 464 W/m 13,2 C 17,4 C 19,3 km/h (3 Bft)
16.09.2018 12:45 19,7 C 66 % 1019,7 hPa 0,0 l/m 12,2 km/h (2 Bft) SW 236 3 min 431 W/m 13,2 C 17,6 C 20,9 km/h (4 Bft)
16.09.2018 12:48 19,7 C 66 % 1019,6 hPa 0,0 l/m 12,2 km/h (2 Bft) S-SO 152 3 min 441 W/m 13,2 C 17,6 C 20,9 km/h (4 Bft)
16.09.2018 12:51 19,7 C 66 % 1019,6 hPa 0,0 l/m 14,9 km/h (3 Bft) W-SW 242 3 min 457 W/m 13,2 C 16,9 C 27,4 km/h (5 Bft)
16.09.2018 12:54 19,6 C 65 % 1019,5 hPa 0,0 l/m 12,7 km/h (3 Bft) S-SW 209 3 min 473 W/m 12,8 C 17,4 C 22,5 km/h (4 Bft)
16.09.2018 12:57 19,6 C 65 % 1019,5 hPa 0,0 l/m 15,4 km/h (3 Bft) SW 232 0 min 306 W/m 12,8 C 16,7 C 24,1 km/h (4 Bft)
16.09.2018 13:00 19,4 C 66 % 1019,4 hPa 0,0 l/m 13,8 km/h (3 Bft) S-SW 210 0 min 276 W/m 12,9 C 16,8 C 20,9 km/h (4 Bft)
16.09.2018 13:03 19,3 C 66 % 1019,5 hPa 0,0 l/m 12,2 km/h (2 Bft) SW 225 0 min 308 W/m 12,8 C 17,2 C 22,5 km/h (4 Bft)
16.09.2018 13:06 19,2 C 66 % 1019,5 hPa 0,0 l/m 13,5 km/h (3 Bft) SW 234 0 min 329 W/m 12,7 C 16,7 C 25,7 km/h (4 Bft)
16.09.2018 13:09 19,3 C 65 % 1019,4 hPa 0,0 l/m 14,2 km/h (3 Bft) S-SW 206 0 min 306 W/m 12,6 C 16,6 C 24,1 km/h (4 Bft)
16.09.2018 13:12 19,3 C 66 % 1019,4 hPa 0,0 l/m 13,2 km/h (3 Bft) S-SW 209 0 min 288 W/m 12,8 C 16,9 C 22,5 km/h (4 Bft)
16.09.2018 13:15 19,3 C 66 % 1019,4 hPa 0,0 l/m 9,5 km/h (2 Bft) W-SW 249 0 min 301 W/m 12,8 C 18,0 C 17,7 km/h (3 Bft)
16.09.2018 13:18 19,4 C 67 % 1019,4 hPa 0,0 l/m 10,2 km/h (2 Bft) SW 215 0 min 290 W/m 13,1 C 17,9 C 19,3 km/h (3 Bft)
16.09.2018 13:21 19,4 C 66 % 1019,3 hPa 0,0 l/m 15,7 km/h (3 Bft) SW 225 0 min 276 W/m 12,9 C 16,4 C 25,7 km/h (4 Bft)
16.09.2018 13:24 19,3 C 65 % 1019,3 hPa 0,0 l/m 14,7 km/h (3 Bft) S-SW 212 0 min 265 W/m 12,6 C 16,5 C 20,9 km/h (4 Bft)
16.09.2018 13:27 19,3 C 66 % 1019,3 hPa 0,0 l/m 10,9 km/h (2 Bft) SW 229 0 min 243 W/m 12,8 C 17,6 C 20,9 km/h (4 Bft)
16.09.2018 13:30 19,4 C 67 % 1019,3 hPa 0,0 l/m 10,8 km/h (2 Bft) SW 227 0 min 251 W/m 13,1 C 17,7 C 19,3 km/h (3 Bft)
16.09.2018 13:33 19,4 C 65 % 1019,2 hPa 0,0 l/m 14,2 km/h (3 Bft) S-SW 193 0 min 227 W/m 12,6 C 16,7 C 29,0 km/h (5 Bft)
16.09.2018 13:36 19,4 C 66 % 1019,2 hPa 0,0 l/m 10,1 km/h (2 Bft) SW 217 0 min 223 W/m 12,9 C 17,9 C 16,1 km/h (3 Bft)
16.09.2018 13:39 19,3 C 65 % 1019,2 hPa 0,0 l/m 12,0 km/h (2 Bft) S 175 0 min 250 W/m 12,6 C 17,2 C 20,9 km/h (4 Bft)
16.09.2018 13:42 19,4 C 66 % 1019,2 hPa 0,0 l/m 12,4 km/h (2 Bft) SW 221 0 min 315 W/m 12,9 C 17,2 C 19,3 km/h (3 Bft)
16.09.2018 13:45 19,4 C 65 % 1019,1 hPa 0,0 l/m 12,2 km/h (2 Bft) S-SO 148 0 min 327 W/m 12,6 C 17,3 C 22,5 km/h (4 Bft)
16.09.2018 13:48 19,4 C 65 % 1019,2 hPa 0,0 l/m 17,4 km/h (3 Bft) SW 232 0 min 287 W/m 12,6 C 16,0 C 25,7 km/h (4 Bft)
16.09.2018 13:51 19,4 C 65 % 1019,2 hPa 0,0 l/m 13,3 km/h (3 Bft) S 182 0 min 320 W/m 12,6 C 17,0 C 24,1 km/h (4 Bft)
16.09.2018 13:54 19,5 C 66 % 1019,1 hPa 0,0 l/m 12,2 km/h (2 Bft) SW 215 3 min 357 W/m 13,0 C 17,4 C 22,5 km/h (4 Bft)
16.09.2018 13:57 19,6 C 64 % 1019,2 hPa 0,0 l/m 15,3 km/h (3 Bft) S-SW 201 3 min 374 W/m 12,6 C 16,7 C 27,4 km/h (5 Bft)
16.09.2018 14:00 19,7 C 65 % 1019,1 hPa 0,0 l/m 16,4 km/h (3 Bft) S 184 3 min 534 W/m 12,9 C 16,6 C 27,4 km/h (5 Bft)
16.09.2018 14:03 19,8 C 65 % 1019,2 hPa 0,0 l/m 14,7 km/h (3 Bft) S-SW 210 3 min 341 W/m 13,0 C 17,1 C 20,9 km/h (4 Bft)
16.09.2018 14:06 20,2 C 64 % 1019,2 hPa 0,0 l/m 15,5 km/h (3 Bft) S-SW 211 3 min 642 W/m 13,2 C 17,4 C 32,2 km/h (5 Bft)
16.09.2018 14:09 20,3 C 64 % 1019,2 hPa 0,0 l/m 11,6 km/h (2 Bft) S-SW 200 0 min 302 W/m 13,3 C 18,5 C 17,7 km/h (3 Bft)
16.09.2018 14:12 20,3 C 63 % 1019,1 hPa 0,0 l/m 15,3 km/h (3 Bft) S-SW 211 3 min 519 W/m 13,0 C 17,5 C 27,4 km/h (5 Bft)
16.09.2018 14:15 20,4 C 62 % 1019,1 hPa 0,0 l/m 17,6 km/h (3 Bft) W-SW 243 3 min 464 W/m 12,9 C 17,2 C 30,6 km/h (5 Bft)
16.09.2018 14:18 20,4 C 60 % 1019,1 hPa 0,0 l/m 20,2 km/h (4 Bft) SW 221 3 min 394 W/m 12,4 C 16,7 C 33,8 km/h (5 Bft)
16.09.2018 14:21 20,3 C 60 % 1019,0 hPa 0,0 l/m 20,5 km/h (4 Bft) SW 221 3 min 494 W/m 12,3 C 16,5 C 30,6 km/h (5 Bft)
16.09.2018 14:24 20,3 C 61 % 1019,0 hPa 0,0 l/m 17,8 km/h (3 Bft) SW 232 3 min 468 W/m 12,5 C 17,0 C 35,4 km/h (5 Bft)
16.09.2018 14:27 20,4 C 60 % 1018,9 hPa 0,0 l/m 17,3 km/h (3 Bft) S 190 3 min 432 W/m 12,4 C 17,2 C 25,7 km/h (4 Bft)
16.09.2018 14:30 20,5 C 60 % 1018,9 hPa 0,0 l/m 16,1 km/h (3 Bft) W-SW 253 3 min 515 W/m 12,5 C 17,6 C 29,0 km/h (5 Bft)
16.09.2018 14:33 20,5 C 61 % 1018,9 hPa 0,0 l/m 16,1 km/h (3 Bft) SW 229 3 min 533 W/m 12,7 C 17,6 C 27,4 km/h (5 Bft)
16.09.2018 14:36 20,6 C 61 % 1018,9 hPa 0,0 l/m 18,1 km/h (3 Bft) S-SW 207 3 min 552 W/m 12,8 C 17,3 C 27,4 km/h (5 Bft)
16.09.2018 14:39 20,6 C 61 % 1018,8 hPa 0,0 l/m 16,4 km/h (3 Bft) SW 223 3 min 519 W/m 12,8 C 17,7 C 27,4 km/h (5 Bft)
16.09.2018 14:42 20,5 C 61 % 1018,9 hPa 0,0 l/m 19,5 km/h (3 Bft) SW 221 3 min 513 W/m 12,7 C 16,9 C 29,0 km/h (5 Bft)
16.09.2018 14:45 20,4 C 61 % 1018,9 hPa 0,0 l/m 18,7 km/h (3 Bft) S-SW 201 3 min 561 W/m 12,6 C 17,0 C 29,0 km/h (5 Bft)
16.09.2018 14:48 20,4 C 62 % 1018,8 hPa 0,0 l/m 14,5 km/h (3 Bft) SW 222 3 min 568 W/m 12,9 C 17,9 C 24,1 km/h (4 Bft)
16.09.2018 14:51 20,6 C 62 % 1018,8 hPa 0,0 l/m 16,3 km/h (3 Bft) SW 227 3 min 555 W/m 13,1 C 17,7 C 20,9 km/h (4 Bft)
16.09.2018 14:54 20,7 C 62 % 1018,8 hPa 0,0 l/m 18,0 km/h (3 Bft) S-SW 211 3 min 540 W/m 13,2 C 17,5 C 29,0 km/h (5 Bft)
16.09.2018 14:57 20,6 C 61 % 1018,8 hPa 0,0 l/m 16,3 km/h (3 Bft) S-SW 209 3 min 425 W/m 12,8 C 17,7 C 27,4 km/h (5 Bft)
16.09.2018 15:00 20,6 C 62 % 1018,7 hPa 0,0 l/m 16,7 km/h (3 Bft) S-SW 192 3 min 517 W/m 13,1 C 17,6 C 27,4 km/h (5 Bft)
16.09.2018 15:03 20,4 C 62 % 1018,6 hPa 0,0 l/m 17,0 km/h (3 Bft) S 169 3 min 504 W/m 12,9 C 17,3 C 32,2 km/h (5 Bft)
16.09.2018 15:06 20,6 C 63 % 1018,7 hPa 0,0 l/m 12,2 km/h (2 Bft) SW 236 3 min 512 W/m 13,3 C 18,7 C 22,5 km/h (4 Bft)
16.09.2018 15:09 20,7 C 63 % 1018,6 hPa 0,0 l/m 12,8 km/h (3 Bft) SW 225 3 min 508 W/m 13,4 C 18,6 C 22,5 km/h (4 Bft)
16.09.2018 15:12 20,8 C 62 % 1018,6 hPa 0,0 l/m 16,6 km/h (3 Bft) SW 229 3 min 492 W/m 13,2 C 17,9 C 30,6 km/h (5 Bft)
16.09.2018 15:15 20,8 C 63 % 1018,5 hPa 0,0 l/m 12,9 km/h (3 Bft) SW 234 3 min 448 W/m 13,5 C 18,7 C 19,3 km/h (3 Bft)
16.09.2018 15:18 20,9 C 63 % 1018,5 hPa 0,0 l/m 12,9 km/h (3 Bft) SW 219 3 min 381 W/m 13,6 C 18,8 C 25,7 km/h (4 Bft)
16.09.2018 15:21 20,8 C 61 % 1018,4 hPa 0,0 l/m 13,1 km/h (3 Bft) SW 221 3 min 355 W/m 13,0 C 18,7 C 22,5 km/h (4 Bft)
16.09.2018 15:24 20,6 C 62 % 1018,4 hPa 0,0 l/m 11,8 km/h (2 Bft) S 173 0 min 241 W/m 13,1 C 18,8 C 22,5 km/h (4 Bft)
16.09.2018 15:27 20,4 C 64 % 1018,4 hPa 0,0 l/m 12,0 km/h (2 Bft) SW 215 0 min 250 W/m 13,4 C 18,5 C 20,9 km/h (4 Bft)
16.09.2018 15:30 20,3 C 64 % 1018,4 hPa 0,0 l/m 14,7 km/h (3 Bft) SW 215 0 min 148 W/m 13,3 C 17,7 C 22,5 km/h (4 Bft)
16.09.2018 15:33 20,1 C 64 % 1018,4 hPa 0,0 l/m 16,1 km/h (3 Bft) S 190 0 min 156 W/m 13,1 C 17,1 C 24,1 km/h (4 Bft)
16.09.2018 15:36 19,9 C 64 % 1018,4 hPa 0,0 l/m 18,9 km/h (3 Bft) SW 234 0 min 190 W/m 12,9 C 16,3 C 27,4 km/h (5 Bft)
16.09.2018 15:39 19,8 C 66 % 1018,5 hPa 0,0 l/m 12,0 km/h (2 Bft) SW 232 0 min 221 W/m 13,3 C 17,8 C 22,5 km/h (4 Bft)
16.09.2018 15:42 19,8 C 67 % 1018,5 hPa 0,0 l/m 13,7 km/h (3 Bft) SW 229 3 min 309 W/m 13,5 C 17,3 C 19,3 km/h (3 Bft)
16.09.2018 15:45 19,9 C 67 % 1018,4 hPa 0,0 l/m 14,5 km/h (3 Bft) SW 225 0 min 241 W/m 13,6 C 17,3 C 22,5 km/h (4 Bft)
16.09.2018 15:48 19,9 C 64 % 1018,4 hPa 0,0 l/m 14,9 km/h (3 Bft) SW 216 0 min 220 W/m 12,9 C 17,2 C 20,9 km/h (4 Bft)
16.09.2018 15:51 19,9 C 65 % 1018,3 hPa 0,0 l/m 9,8 km/h (2 Bft) W-SW 242 0 min 195 W/m 13,1 C 18,6 C 14,5 km/h (3 Bft)
16.09.2018 15:54 19,9 C 65 % 1018,2 hPa 0,0 l/m 10,2 km/h (2 Bft) S-SW 209 0 min 179 W/m 13,1 C 18,5 C 17,7 km/h (3 Bft)
16.09.2018 15:57 19,8 C 64 % 1018,2 hPa 0,0 l/m 12,8 km/h (3 Bft) SW 236 0 min 169 W/m 12,8 C 17,6 C 17,7 km/h (3 Bft)
16.09.2018 16:00 19,8 C 65 % 1018,3 hPa 0,0 l/m 9,4 km/h (2 Bft) S-SW 200 0 min 183 W/m 13,0 C 18,6 C 17,7 km/h (3 Bft)
16.09.2018 16:03 19,8 C 65 % 1018,2 hPa 0,0 l/m 9,7 km/h (2 Bft) S-SW 206 0 min 225 W/m 13,0 C 18,5 C 19,3 km/h (3 Bft)
16.09.2018 16:06 19,9 C 65 % 1018,1 hPa 0,0 l/m 11,2 km/h (2 Bft) SW 214 0 min 236 W/m 13,1 C 18,2 C 22,5 km/h (4 Bft)
16.09.2018 16:09 19,9 C 64 % 1018,0 hPa 0,0 l/m 11,5 km/h (2 Bft) SW 235 0 min 230 W/m 12,9 C 18,1 C 19,3 km/h (3 Bft)
16.09.2018 16:12 19,9 C 65 % 1018,0 hPa 0,0 l/m 11,8 km/h (2 Bft) W-SW 246 0 min 236 W/m 13,1 C 18,0 C 19,3 km/h (3 Bft)
16.09.2018 16:15 20,1 C 65 % 1018,0 hPa 0,0 l/m 11,3 km/h (2 Bft) SW 230 3 min 274 W/m 13,3 C 18,3 C 19,3 km/h (3 Bft)
16.09.2018 16:18 20,2 C 65 % 1017,9 hPa 0,0 l/m 10,7 km/h (2 Bft) SW 222 3 min 271 W/m 13,4 C 18,6 C 17,7 km/h (3 Bft)
16.09.2018 16:21 20,3 C 64 % 1017,9 hPa 0,0 l/m 9,4 km/h (2 Bft) S-SW 207 0 min 244 W/m 13,3 C 19,2 C 17,7 km/h (3 Bft)
16.09.2018 16:24 20,3 C 65 % 1017,9 hPa 0,0 l/m 10,1 km/h (2 Bft) SW 232 0 min 223 W/m 13,5 C 18,9 C 16,1 km/h (3 Bft)
16.09.2018 16:27 20,3 C 64 % 1017,9 hPa 0,0 l/m 10,9 km/h (2 Bft) SW 232 0 min 185 W/m 13,3 C 18,7 C 17,7 km/h (3 Bft)
16.09.2018 16:30 20,3 C 64 % 1017,9 hPa 0,0 l/m 12,2 km/h (2 Bft) W-SW 250 0 min 197 W/m 13,3 C 18,3 C 22,5 km/h (4 Bft)
16.09.2018 16:33 20,3 C 64 % 1017,8 hPa 0,0 l/m 12,0 km/h (2 Bft) S-SW 205 0 min 195 W/m 13,3 C 18,4 C 25,7 km/h (4 Bft)
16.09.2018 16:36 20,2 C 62 % 1017,8 hPa 0,0 l/m 15,3 km/h (3 Bft) SW 226 0 min 188 W/m 12,7 C 17,4 C 24,1 km/h (4 Bft)
16.09.2018 16:39 20,2 C 63 % 1017,8 hPa 0,0 l/m 11,7 km/h (2 Bft) SW 235 3 min 230 W/m 12,9 C 18,3 C 20,9 km/h (4 Bft)
16.09.2018 16:42 20,3 C 64 % 1017,8 hPa 0,0 l/m 10,5 km/h (2 Bft) SW 216 3 min 304 W/m 13,3 C 18,8 C 17,7 km/h (3 Bft)
16.09.2018 16:45 20,4 C 62 % 1017,8 hPa 0,0 l/m 14,8 km/h (3 Bft) S-SW 194 3 min 276 W/m 12,9 C 17,8 C 22,5 km/h (4 Bft)
16.09.2018 16:48 20,5 C 63 % 1017,8 hPa 0,0 l/m 10,1 km/h (2 Bft) SW 236 3 min 234 W/m 13,2 C 19,2 C 17,7 km/h (3 Bft)
16.09.2018 16:51 20,5 C 63 % 1017,7 hPa 0,0 l/m 10,4 km/h (2 Bft) S-SW 200 0 min 179 W/m 13,2 C 19,1 C 17,7 km/h (3 Bft)
16.09.2018 16:54 20,4 C 63 % 1017,6 hPa 0,0 l/m 9,7 km/h (2 Bft) W 259 0 min 185 W/m 13,1 C 19,2 C 14,5 km/h (3 Bft)
16.09.2018 16:57 20,3 C 63 % 1017,6 hPa 0,0 l/m 9,2 km/h (2 Bft) S-SW 209 0 min 174 W/m 13,0 C 19,2 C 12,9 km/h (3 Bft)
16.09.2018 17:00 20,2 C 63 % 1017,6 hPa 0,0 l/m 11,9 km/h (2 Bft) SW 231 0 min 155 W/m 12,9 C 18,3 C 17,7 km/h (3 Bft)
16.09.2018 17:03 20,2 C 64 % 1017,6 hPa 0,0 l/m 9,3 km/h (2 Bft) S-SO 168 0 min 195 W/m 13,2 C 19,1 C 16,1 km/h (3 Bft)
16.09.2018 17:06 20,2 C 64 % 1017,6 hPa 0,0 l/m 8,5 km/h (2 Bft) SW 215 0 min 155 W/m 13,2 C 19,4 C 14,5 km/h (3 Bft)
16.09.2018 17:09 20,1 C 63 % 1017,6 hPa 0,0 l/m 9,1 km/h (2 Bft) SW 229 0 min 118 W/m 12,8 C 19,1 C 14,5 km/h (3 Bft)
16.09.2018 17:12 20,0 C 63 % 1017,6 hPa 0,0 l/m 10,6 km/h (2 Bft) SW 219 0 min 104 W/m 12,7 C 18,4 C 17,7 km/h (3 Bft)
16.09.2018 17:15 19,9 C 63 % 1017,6 hPa 0,0 l/m 9,2 km/h (2 Bft) SW 223 0 min 97 W/m 12,6 C 18,8 C 16,1 km/h (3 Bft)
16.09.2018 17:18 19,8 C 64 % 1017,5 hPa 0,0 l/m 6,9 km/h (2 Bft) SW 226 0 min 91 W/m 12,8 C 19,6 C 14,5 km/h (3 Bft)
16.09.2018 17:21 19,7 C 65 % 1017,5 hPa 0,0 l/m 7,3 km/h (2 Bft) S-SW 199 0 min 86 W/m 12,9 C 19,3 C 12,9 km/h (3 Bft)
16.09.2018 17:24 19,7 C 65 % 1017,5 hPa 0,0 l/m 8,4 km/h (2 Bft) SW 224 0 min 81 W/m 12,9 C 18,9 C 16,1 km/h (3 Bft)
16.09.2018 17:27 19,6 C 66 % 1017,4 hPa 0,0 l/m 6,5 km/h (2 Bft) SW 226 0 min 81 W/m 13,1 C 19,6 C 12,9 km/h (3 Bft)
16.09.2018 17:30 19,5 C 66 % 1017,4 hPa 0,0 l/m 6,6 km/h (2 Bft) SW 217 0 min 81 W/m 13,0 C 19,4 C 11,3 km/h (2 Bft)
16.09.2018 17:33 19,4 C 66 % 1017,4 hPa 0,0 l/m 7,1 km/h (2 Bft) SW 233 0 min 79 W/m 12,9 C 19,1 C 11,3 km/h (2 Bft)
16.09.2018 17:36 19,4 C 67 % 1017,4 hPa 0,0 l/m 7,1 km/h (2 Bft) S 182 0 min 77 W/m 13,1 C 19,1 C 14,5 km/h (3 Bft)
16.09.2018 17:39 19,3 C 67 % 1017,3 hPa 0,0 l/m 5,9 km/h (2 Bft) S-SW 196 0 min 76 W/m 13,0 C 19,3 C 9,7 km/h (2 Bft)
16.09.2018 17:42 19,3 C 68 % 1017,3 hPa 0,0 l/m 7,1 km/h (2 Bft) S-SW 207 0 min 79 W/m 13,2 C 19,0 C 12,9 km/h (3 Bft)
16.09.2018 17:45 19,2 C 68 % 1017,2 hPa 0,0 l/m 5,6 km/h (2 Bft) SW 217 0 min 90 W/m 13,1 C 19,2 C 9,7 km/h (2 Bft)
16.09.2018 17:48 19,2 C 68 % 1017,3 hPa 0,0 l/m 5,6 km/h (2 Bft) S 180 0 min 102 W/m 13,1 C 19,2 C 11,3 km/h (2 Bft)
16.09.2018 17:51 19,2 C 69 % 1017,2 hPa 0,0 l/m 5,1 km/h (1 Bft) S-SW 192 0 min 104 W/m 13,4 C 19,2 C 8,0 km/h (2 Bft)
16.09.2018 17:54 19,3 C 69 % 1017,2 hPa 0,0 l/m 4,5 km/h (1 Bft) SW 217 0 min 95 W/m 13,5 C 19,3 C 11,3 km/h (2 Bft)
16.09.2018 17:57 19,2 C 69 % 1017,2 hPa 0,0 l/m 5,2 km/h (1 Bft) SW 225 0 min 83 W/m 13,4 C 19,2 C 8,0 km/h (2 Bft)
16.09.2018 18:00 19,2 C 69 % 1017,2 hPa 0,0 l/m 5,1 km/h (1 Bft) S-SW 213 0 min 72 W/m 13,4 C 19,2 C 9,7 km/h (2 Bft)
16.09.2018 18:03 19,2 C 70 % 1017,2 hPa 0,0 l/m 2,1 km/h (1 Bft) S-SW 213 0 min 70 W/m 13,6 C 19,2 C 4,8 km/h (1 Bft)
16.09.2018 18:06 19,1 C 70 % 1017,2 hPa 0,0 l/m 2,9 km/h (1 Bft) S-SW 201 0 min 76 W/m 13,5 C 19,1 C 8,0 km/h (2 Bft)
16.09.2018 18:09 19,2 C 71 % 1017,1 hPa 0,0 l/m 3,9 km/h (1 Bft) S-SW 200 0 min 86 W/m 13,8 C 19,2 C 8,0 km/h (2 Bft)
16.09.2018 18:12 19,2 C 71 % 1017,1 hPa 0,0 l/m 2,8 km/h (1 Bft) S-SW 200 0 min 98 W/m 13,8 C 19,2 C 4,8 km/h (1 Bft)
16.09.2018 18:15 19,2 C 71 % 1017,1 hPa 0,0 l/m 2,7 km/h (1 Bft) S-SW 200 3 min 123 W/m 13,8 C 19,2 C 4,8 km/h (1 Bft)
16.09.2018 18:18 19,3 C 70 % 1017,1 hPa 0,0 l/m 3,5 km/h (1 Bft) S-SW 200 3 min 125 W/m 13,7 C 19,3 C 4,8 km/h (1 Bft)
16.09.2018 18:21 19,4 C 69 % 1017,1 hPa 0,0 l/m 5,0 km/h (1 Bft) S-SW 201 3 min 134 W/m 13,6 C 19,4 C 8,0 km/h (2 Bft)
16.09.2018 18:24 19,5 C 69 % 1017,1 hPa 0,0 l/m 4,8 km/h (1 Bft) S-SO 168 3 min 105 W/m 13,7 C 19,5 C 9,7 km/h (2 Bft)
16.09.2018 18:27 19,6 C 69 % 1017,1 hPa 0,0 l/m 6,2 km/h (2 Bft) S-SW 193 3 min 95 W/m 13,8 C 19,6 C 11,3 km/h (2 Bft)
16.09.2018 18:30 19,5 C 68 % 1017,1 hPa 0,0 l/m 6,4 km/h (2 Bft) W-SW 250 3 min 91 W/m 13,4 C 19,5 C 12,9 km/h (3 Bft)
16.09.2018 18:33 19,5 C 68 % 1017,2 hPa 0,0 l/m 7,4 km/h (2 Bft) W-SW 249 3 min 84 W/m 13,4 C 19,1 C 12,9 km/h (3 Bft)
16.09.2018 18:36 19,5 C 67 % 1017,2 hPa 0,0 l/m 8,0 km/h (2 Bft) SW 234 0 min 70 W/m 13,2 C 18,8 C 17,7 km/h (3 Bft)
16.09.2018 18:39 19,5 C 67 % 1017,3 hPa 0,0 l/m 8,2 km/h (2 Bft) SW 221 0 min 72 W/m 13,2 C 18,7 C 14,5 km/h (3 Bft)
16.09.2018 18:42 19,4 C 67 % 1017,3 hPa 0,0 l/m 7,5 km/h (2 Bft) S 183 0 min 47 W/m 13,1 C 18,9 C 12,9 km/h (3 Bft)
16.09.2018 18:45 19,4 C 67 % 1017,3 hPa 0,0 l/m 9,5 km/h (2 Bft) SW 221 0 min 39 W/m 13,1 C 18,2 C 20,9 km/h (4 Bft)
16.09.2018 18:48 19,3 C 67 % 1017,3 hPa 0,0 l/m 6,9 km/h (2 Bft) S-SW 203 0 min 32 W/m 13,0 C 19,1 C 12,9 km/h (3 Bft)
16.09.2018 18:51 19,2 C 68 % 1017,3 hPa 0,0 l/m 7,6 km/h (2 Bft) SW 215 0 min 26 W/m 13,1 C 18,7 C 14,5 km/h (3 Bft)
16.09.2018 18:54 19,1 C 68 % 1017,3 hPa 0,0 l/m 8,4 km/h (2 Bft) SW 227 0 min 23 W/m 13,1 C 18,2 C 14,5 km/h (3 Bft)
16.09.2018 18:57 18,9 C 68 % 1017,4 hPa 0,0 l/m 7,9 km/h (2 Bft) SW 232 0 min 19 W/m 12,9 C 18,2 C 14,5 km/h (3 Bft)
16.09.2018 19:00 18,8 C 68 % 1017,4 hPa 0,0 l/m 9,3 km/h (2 Bft) S-SW 213 0 min 16 W/m 12,8 C 17,6 C 14,5 km/h (3 Bft)
16.09.2018 19:03 18,7 C 68 % 1017,4 hPa 0,0 l/m 8,3 km/h (2 Bft) SW 227 0 min 14 W/m 12,7 C 17,9 C 14,5 km/h (3 Bft)
16.09.2018 19:06 18,6 C 69 % 1017,3 hPa 0,0 l/m 6,0 km/h (2 Bft) W-SW 238 0 min 12 W/m 12,8 C 18,6 C 11,3 km/h (2 Bft)
16.09.2018 19:09 18,4 C 70 % 1017,3 hPa 0,0 l/m 5,1 km/h (1 Bft) SW 232 0 min 14 W/m 12,8 C 18,4 C 9,7 km/h (2 Bft)
16.09.2018 19:12 18,3 C 70 % 1017,3 hPa 0,0 l/m 5,6 km/h (2 Bft) S-SW 213 0 min 14 W/m 12,7 C 18,3 C 9,7 km/h (2 Bft)
16.09.2018 19:15 18,2 C 71 % 1017,2 hPa 0,0 l/m 4,8 km/h (1 Bft) SW 215 0 min 9 W/m 12,9 C 18,2 C 8,0 km/h (2 Bft)
16.09.2018 19:18 18,2 C 71 % 1017,3 hPa 0,0 l/m 4,7 km/h (1 Bft) SW 223 0 min 7 W/m 12,9 C 18,2 C 6,4 km/h (2 Bft)
16.09.2018 19:21 18,1 C 71 % 1017,3 hPa 0,0 l/m 4,6 km/h (1 Bft) SW 225 0 min 7 W/m 12,8 C 18,1 C 8,0 km/h (2 Bft)
16.09.2018 19:24 17,9 C 71 % 1017,4 hPa 0,0 l/m 4,5 km/h (1 Bft) SW 225 0 min 5 W/m 12,6 C 17,9 C 8,0 km/h (2 Bft)
16.09.2018 19:27 17,7 C 72 % 1017,3 hPa 0,0 l/m 2,9 km/h (1 Bft) SW 225 0 min 5 W/m 12,6 C 17,7 C 4,8 km/h (1 Bft)
16.09.2018 19:30 17,7 C 72 % 1017,4 hPa 0,0 l/m 2,8 km/h (1 Bft) SW 225 0 min 5 W/m 12,6 C 17,7 C 4,8 km/h (1 Bft)
16.09.2018 19:45 16,8 C 75 % 1017,5 hPa 0,0 l/m 1,6 km/h (1 Bft) SW 225 0 min 5 W/m 12,3 C 16,8 C 3,2 km/h (1 Bft)
16.09.2018 20:00 16,4 C 79 % 1017,4 hPa 0,0 l/m 1,6 km/h (1 Bft) SW 225 0 min 0 W/m 12,7 C 16,4 C 6,4 km/h (2 Bft)
16.09.2018 20:15 16,2 C 81 % 1017,5 hPa 0,0 l/m 3,2 km/h (1 Bft) SW 225 0 min 0 W/m 12,9 C 16,2 C 6,4 km/h (2 Bft)
16.09.2018 20:30 15,9 C 81 % 1017,5 hPa 0,0 l/m 1,6 km/h (1 Bft) SW 225 0 min 0 W/m 12,6 C 15,9 C 4,8 km/h (1 Bft)
16.09.2018 20:45 15,6 C 82 % 1017,4 hPa 0,0 l/m 0,0 km/h (0 Bft) SW 225 0 min 0 W/m 12,5 C 15,6 C 3,2 km/h (1 Bft)
16.09.2018 21:00 15,3 C 83 % 1017,3 hPa 0,0 l/m 1,6 km/h (1 Bft) SW 225 0 min 0 W/m 12,4 C 15,3 C 4,8 km/h (1 Bft)
16.09.2018 21:15 15,4 C 83 % 1017,4 hPa 0,0 l/m 3,2 km/h (1 Bft) SW 225 0 min 0 W/m 12,5 C 15,4 C 4,8 km/h (1 Bft)
16.09.2018 21:30 15,7 C 82 % 1017,3 hPa 0,0 l/m 1,6 km/h (1 Bft) SW 225 0 min 0 W/m 12,6 C 15,7 C 6,4 km/h (2 Bft)
16.09.2018 21:45 15,8 C 81 % 1017,4 hPa 0,0 l/m 3,2 km/h (1 Bft) S 180 0 min 0 W/m 12,5 C 15,8 C 6,4 km/h (2 Bft)
16.09.2018 22:00 15,8 C 81 % 1017,5 hPa 0,0 l/m 3,2 km/h (1 Bft) S 180 0 min 0 W/m 12,5 C 15,8 C 6,4 km/h (2 Bft)
16.09.2018 22:15 15,7 C 81 % 1017,6 hPa 0,0 l/m 3,2 km/h (1 Bft) S 180 0 min 0 W/m 12,4 C 15,7 C 4,8 km/h (1 Bft)
16.09.2018 22:30 15,3 C 82 % 1017,5 hPa 0,0 l/m 1,6 km/h (1 Bft) S 180 0 min 0 W/m 12,2 C 15,3 C 4,8 km/h (1 Bft)
16.09.2018 22:45 15,1 C 82 % 1017,3 hPa 0,0 l/m 3,2 km/h (1 Bft) S 180 0 min 0 W/m 12,0 C 15,1 C 4,8 km/h (1 Bft)
16.09.2018 23:00 14,8 C 82 % 1017,2 hPa 0,0 l/m 3,2 km/h (1 Bft) S 180 0 min 0 W/m 11,8 C 14,8 C 4,8 km/h (1 Bft)
16.09.2018 23:15 14,5 C 83 % 1017,4 hPa 0,0 l/m 3,2 km/h (1 Bft) S 180 0 min 0 W/m 11,6 C 14,5 C 6,4 km/h (2 Bft)
16.09.2018 23:30 14,2 C 83 % 1017,3 hPa 0,0 l/m 3,2 km/h (1 Bft) S-SW 202 0 min 0 W/m 11,4 C 14,2 C 4,8 km/h (1 Bft)
16.09.2018 23:45 14,0 C 83 % 1017,3 hPa 0,0 l/m 3,2 km/h (1 Bft) S-SW 202 0 min 0 W/m 11,2 C 14,0 C 6,4 km/h (2 Bft)
_ Min-Zeit 04:33 14:18 18:09 - 20:45 - - - - 00:00 09:45 04:09
Minimum _ 12,2 C 60 % 1017,1 hPa - 0,0 km/h (0 Bft) - - - - 9,8 C 11,4 C 1,6 km/h (1 Bft)
_ Max-Zeit 15:18 06:27 00:00 00:00 14:21 - - 09:45 14:06 18:09 18:27 14:24
Maximum _ 20,9 C 93 % 1022,5 hPa 0,0 l/m 20,5 km/h
SW (4 Bft)
- - 3 min 642 W/m 13,8 C 19,6 C 35,4 km/h
S-SO (5 Bft)
Durchschnitt _ 15,9 C 79 % 1019,7 hPa #0,0 l/m 6,7 km/h (2 Bft) S - #4:54 h 235 W/m 12,1 C 15,2 C 12,0 km/h (2 Bft)
2018 Cux-Wetter.de -Die Nutzung der Wetterdaten nur mit ausdrcklicher Genehmigung